Terminal Aerodrome Forecast
Issued by NWS Upton, NY

Home | Current Version | Previous Version | Text Only | Print | Product List | Glossary On
Versions: 1 2 3 4 5 6 7 8 9 10 11 12 13 14 15 16 17 18 19 20 21 22 23 24 25 26 27 28 29 30 31 32
672
FTUS41 KOKX 230539
TAFBDR
TAF
KBDR 230539Z 2306/2406 19006KT P6SM SCT050 BKN100
     FM230800 19004KT 5SM BR SCT005 BKN100
     FM231200 18005KT P6SM VCSH SCT005 BKN100
     FM231500 19009KT P6SM VCSH SCT025 BKN100
     FM231800 21013KT P6SM VCSH SCT025 BKN050
     FM231900 21013KT P6SM VCTS SCT025CB BKN050
     FM240400 22008KT 3SM SHRA VCTS BKN015CB BKN050=

USA.gov is the U.S. government's official web portal to all federal, state and local government web resources and services.